Main page
METAR-TAF:

METAR-TAF

Airports :

Savonlinna Airport

Savonlinna, Finland

latitude: 61-57N, longitude: 028-57E, elevation: 95 m

Current weather observation

The report was made 26 minutes ago, at 03:20 UTC
Wind 11 kt from the West/Northwest, varying between West and Northwest
Temperature -4°C
Humidity 86%
Pressure 993 hPa
Visibility 10 km or more
no clouds below 1500 m and no cumulonimbus

METAR: EFSA 250320Z AUTO 29011KT 260V320 CAVOK M04/M06 Q0993

Time: 05:46 (03:46 UTC)


TAF: missing

Weather observations and forecasts of more than 4000 airports (METAR and TAF reports).

The available stations are represented by yellow and red dots on the map.

Hover mouse over dot to see the name of the station.

Then click to see weather observations and forecasts.

To change the map : click on the green buttons with a black cross to zoom in, on the green button with a dash to zoom out, or on the green arrows for adjacent maps.


METAR-TAF: